Terminal Aerodrome Forecast
Issued by NWS

Home | Current Version | Previous Version | Text Only | Print | Product List | Glossary On
Versions: 1 2 3 4 5 6 7 8 9 10 11 12
000
FTUS44 KTSA 290500
TAFMLC
TAF
KMLC 290520Z 2906/3006 12008KT P6SM SKC
     FM291500 16011G18KT P6SM BKN250
     FM292000 22008KT P6SM BKN200
     FM300000 35008KT P6SM BKN070=

USA.gov is the U.S. government's official web portal to all federal, state and local government web resources and services.